sensor_id;sensor_type;location;lat;lon;timestamp;P1;durP1;ratioP1;P2;durP2;ratioP2
58727;SDS011;44505;43.240;0.070;2022-12-18T00:01:05;23.90;;;13.85;;
58727;SDS011;44505;43.240;0.070;2022-12-18T00:03:34;30.35;;;17.73;;
58727;SDS011;44505;43.240;0.070;2022-12-18T00:05:59;28.88;;;16.33;;
58727;SDS011;44505;43.240;0.070;2022-12-18T00:08:25;35.13;;;17.52;;
58727;SDS011;44505;43.240;0.070;2022-12-18T00:10:50;33.63;;;16.13;;
58727;SDS011;44505;43.240;0.070;2022-12-18T00:13:16;34.15;;;17.25;;
58727;SDS011;44505;43.240;0.070;2022-12-18T00:15:41;26.88;;;14.60;;
58727;SDS011;44505;43.240;0.070;2022-12-18T00:18:07;21.23;;;14.20;;
58727;SDS011;44505;43.240;0.070;2022-12-18T00:20:36;45.38;;;25.45;;
58727;SDS011;44505;43.240;0.070;2022-12-18T00:23:01;40.90;;;23.92;;
58727;SDS011;44505;43.240;0.070;2022-12-18T00:25:27;71.18;;;38.65;;
58727;SDS011;44505;43.240;0.070;2022-12-18T00:27:52;34.95;;;19.67;;
58727;SDS011;44505;43.240;0.070;2022-12-18T00:30:18;42.47;;;19.70;;
58727;SDS011;44505;43.240;0.070;2022-12-18T00:32:43;57.90;;;31.92;;
58727;SDS011;44505;43.240;0.070;2022-12-18T00:35:08;47.53;;;25.33;;
58727;SDS011;44505;43.240;0.070;2022-12-18T00:37:34;44.80;;;21.25;;
58727;SDS011;44505;43.240;0.070;2022-12-18T00:39:59;67.22;;;30.58;;
58727;SDS011;44505;43.240;0.070;2022-12-18T00:42:25;74.13;;;28.05;;
58727;SDS011;44505;43.240;0.070;2022-12-18T00:45:09;43.78;;;21.15;;
58727;SDS011;44505;43.240;0.070;2022-12-18T00:47:34;32.80;;;17.92;;
58727;SDS011;44505;43.240;0.070;2022-12-18T00:49:59;34.83;;;18.10;;
58727;SDS011;44505;43.240;0.070;2022-12-18T00:52:25;56.83;;;24.80;;
58727;SDS011;44505;43.240;0.070;2022-12-18T00:54:50;36.30;;;21.70;;
58727;SDS011;44505;43.240;0.070;2022-12-18T00:57:15;47.30;;;21.25;;
58727;SDS011;44505;43.240;0.070;2022-12-18T00:59:41;44.28;;;20.08;;
58727;SDS011;44505;43.240;0.070;2022-12-18T01:02:06;59.42;;;27.77;;
58727;SDS011;44505;43.240;0.070;2022-12-18T01:04:32;67.88;;;30.95;;
58727;SDS011;44505;43.240;0.070;2022-12-18T01:06:58;148.75;;;56.63;;
58727;SDS011;44505;43.240;0.070;2022-12-18T01:09:23;72.70;;;34.83;;
58727;SDS011;44505;43.240;0.070;2022-12-18T01:11:49;49.38;;;23.23;;
58727;SDS011;44505;43.240;0.070;2022-12-18T01:14:14;37.90;;;20.08;;
58727;SDS011;44505;43.240;0.070;2022-12-18T01:16:39;21.88;;;13.85;;
58727;SDS011;44505;43.240;0.070;2022-12-18T01:19:05;23.50;;;13.93;;
58727;SDS011;44505;43.240;0.070;2022-12-18T01:21:30;37.70;;;18.50;;
58727;SDS011;44505;43.240;0.070;2022-12-18T01:23:56;37.53;;;18.02;;
58727;SDS011;44505;43.240;0.070;2022-12-18T01:26:22;33.92;;;15.95;;
58727;SDS011;44505;43.240;0.070;2022-12-18T01:28:47;37.50;;;16.42;;
58727;SDS011;44505;43.240;0.070;2022-12-18T01:31:21;23.50;;;12.65;;
58727;SDS011;44505;43.240;0.070;2022-12-18T01:33:46;44.75;;;17.55;;
58727;SDS011;44505;43.240;0.070;2022-12-18T01:36:15;33.95;;;16.02;;
58727;SDS011;44505;43.240;0.070;2022-12-18T01:38:41;27.42;;;14.32;;
58727;SDS011;44505;43.240;0.070;2022-12-18T01:41:07;20.58;;;11.77;;
58727;SDS011;44505;43.240;0.070;2022-12-18T01:43:47;16.40;;;10.40;;
58727;SDS011;44505;43.240;0.070;2022-12-18T01:46:13;17.35;;;9.50;;
58727;SDS011;44505;43.240;0.070;2022-12-18T01:48:39;14.43;;;9.98;;
58727;SDS011;44505;43.240;0.070;2022-12-18T01:51:06;16.50;;;10.07;;
58727;SDS011;44505;43.240;0.070;2022-12-18T01:55:58;14.73;;;8.77;;
58727;SDS011;44505;43.240;0.070;2022-12-18T01:58:27;15.32;;;8.85;;
58727;SDS011;44505;43.240;0.070;2022-12-18T02:00:55;13.73;;;8.85;;
58727;SDS011;44505;43.240;0.070;2022-12-18T02:03:21;16.75;;;10.13;;
58727;SDS011;44505;43.240;0.070;2022-12-18T02:08:22;21.83;;;11.52;;
58727;SDS011;44505;43.240;0.070;2022-12-18T02:13:25;20.52;;;11.05;;
58727;SDS011;44505;43.240;0.070;2022-12-18T02:18:22;14.10;;;8.63;;
58727;SDS011;44505;43.240;0.070;2022-12-18T02:20:52;16.50;;;9.40;;
58727;SDS011;44505;43.240;0.070;2022-12-18T02:23:36;24.80;;;12.38;;
58727;SDS011;44505;43.240;0.070;2022-12-18T02:28:31;36.33;;;13.75;;
58727;SDS011;44505;43.240;0.070;2022-12-18T02:30:58;41.55;;;16.67;;
58727;SDS011;44505;43.240;0.070;2022-12-18T02:33:25;47.30;;;19.75;;
58727;SDS011;44505;43.240;0.070;2022-12-18T02:35:51;26.60;;;13.93;;
58727;SDS011;44505;43.240;0.070;2022-12-18T02:38:19;35.95;;;15.52;;
58727;SDS011;44505;43.240;0.070;2022-12-18T02:40:44;55.60;;;21.95;;
58727;SDS011;44505;43.240;0.070;2022-12-18T02:43:12;52.47;;;24.08;;
58727;SDS011;44505;43.240;0.070;2022-12-18T02:45:54;44.55;;;24.50;;
58727;SDS011;44505;43.240;0.070;2022-12-18T02:48:22;35.40;;;19.35;;
58727;SDS011;44505;43.240;0.070;2022-12-18T02:50:55;62.90;;;29.00;;
58727;SDS011;44505;43.240;0.070;2022-12-18T02:53:24;21.73;;;12.07;;
58727;SDS011;44505;43.240;0.070;2022-12-18T03:03:40;10.50;;;7.60;;
58727;SDS011;44505;43.240;0.070;2022-12-18T03:06:26;17.83;;;9.55;;
58727;SDS011;44505;43.240;0.070;2022-12-18T03:08:56;52.20;;;19.33;;
58727;SDS011;44505;43.240;0.070;2022-12-18T03:11:22;52.92;;;24.88;;
58727;SDS011;44505;43.240;0.070;2022-12-18T03:14:08;88.30;;;36.30;;
58727;SDS011;44505;43.240;0.070;2022-12-18T03:16:34;20.90;;;11.73;;
58727;SDS011;44505;43.240;0.070;2022-12-18T03:19:01;73.70;;;30.52;;
58727;SDS011;44505;43.240;0.070;2022-12-18T03:21:30;56.33;;;24.52;;
58727;SDS011;44505;43.240;0.070;2022-12-18T03:23:58;40.38;;;19.98;;
58727;SDS011;44505;43.240;0.070;2022-12-18T03:26:24;94.45;;;35.42;;
58727;SDS011;44505;43.240;0.070;2022-12-18T03:28:56;56.47;;;24.40;;
58727;SDS011;44505;43.240;0.070;2022-12-18T03:31:23;53.40;;;23.23;;
58727;SDS011;44505;43.240;0.070;2022-12-18T03:33:55;49.97;;;23.55;;
58727;SDS011;44505;43.240;0.070;2022-12-18T03:36:22;82.85;;;33.13;;
58727;SDS011;44505;43.240;0.070;2022-12-18T03:38:48;90.57;;;33.63;;
58727;SDS011;44505;43.240;0.070;2022-12-18T03:41:25;80.22;;;32.58;;
58727;SDS011;44505;43.240;0.070;2022-12-18T03:46:28;17.10;;;9.23;;
58727;SDS011;44505;43.240;0.070;2022-12-18T03:48:58;17.25;;;9.10;;
58727;SDS011;44505;43.240;0.070;2022-12-18T03:53:55;10.73;;;6.57;;
58727;SDS011;44505;43.240;0.070;2022-12-18T03:56:21;8.88;;;5.63;;
58727;SDS011;44505;43.240;0.070;2022-12-18T03:58:47;11.73;;;6.65;;
58727;SDS011;44505;43.240;0.070;2022-12-18T04:01:13;11.57;;;6.15;;
58727;SDS011;44505;43.240;0.070;2022-12-18T04:03:40;8.15;;;4.82;;
58727;SDS011;44505;43.240;0.070;2022-12-18T04:06:07;13.80;;;5.20;;
58727;SDS011;44505;43.240;0.070;2022-12-18T04:08:33;13.82;;;7.40;;
58727;SDS011;44505;43.240;0.070;2022-12-18T04:11:00;10.18;;;6.63;;
58727;SDS011;44505;43.240;0.070;2022-12-18T04:13:29;19.20;;;9.25;;
58727;SDS011;44505;43.240;0.070;2022-12-18T04:15:55;10.93;;;6.68;;
58727;SDS011;44505;43.240;0.070;2022-12-18T04:18:20;15.50;;;8.63;;
58727;SDS011;44505;43.240;0.070;2022-12-18T04:20:45;30.70;;;12.90;;
58727;SDS011;44505;43.240;0.070;2022-12-18T04:23:11;38.90;;;15.57;;
58727;SDS011;44505;43.240;0.070;2022-12-18T04:25:36;13.50;;;8.30;;
58727;SDS011;44505;43.240;0.070;2022-12-18T04:28:02;30.20;;;13.70;;
58727;SDS011;44505;43.240;0.070;2022-12-18T04:30:27;32.70;;;12.88;;
58727;SDS011;44505;43.240;0.070;2022-12-18T04:32:52;27.00;;;11.43;;
58727;SDS011;44505;43.240;0.070;2022-12-18T04:35:18;24.90;;;10.35;;
58727;SDS011;44505;43.240;0.070;2022-12-18T04:37:43;19.15;;;9.60;;
58727;SDS011;44505;43.240;0.070;2022-12-18T04:40:09;11.35;;;7.50;;
58727;SDS011;44505;43.240;0.070;2022-12-18T04:42:34;16.10;;;7.90;;
58727;SDS011;44505;43.240;0.070;2022-12-18T04:45:00;9.85;;;6.53;;
58727;SDS011;44505;43.240;0.070;2022-12-18T04:47:25;17.13;;;8.57;;
58727;SDS011;44505;43.240;0.070;2022-12-18T04:49:50;48.75;;;18.85;;
58727;SDS011;44505;43.240;0.070;2022-12-18T04:52:16;29.35;;;13.30;;
58727;SDS011;44505;43.240;0.070;2022-12-18T04:54:41;60.65;;;21.58;;
58727;SDS011;44505;43.240;0.070;2022-12-18T04:57:07;22.13;;;9.25;;
58727;SDS011;44505;43.240;0.070;2022-12-18T04:59:32;28.98;;;13.55;;
58727;SDS011;44505;43.240;0.070;2022-12-18T05:01:57;31.15;;;15.68;;
58727;SDS011;44505;43.240;0.070;2022-12-18T05:04:23;36.85;;;13.40;;
58727;SDS011;44505;43.240;0.070;2022-12-18T05:06:48;23.38;;;10.10;;
58727;SDS011;44505;43.240;0.070;2022-12-18T05:09:14;21.02;;;8.93;;
58727;SDS011;44505;43.240;0.070;2022-12-18T05:11:39;18.05;;;8.95;;
58727;SDS011;44505;43.240;0.070;2022-12-18T05:14:04;11.40;;;6.55;;
58727;SDS011;44505;43.240;0.070;2022-12-18T05:16:30;41.90;;;13.50;;
58727;SDS011;44505;43.240;0.070;2022-12-18T05:18:55;55.42;;;16.25;;
58727;SDS011;44505;43.240;0.070;2022-12-18T05:21:20;54.47;;;18.75;;
58727;SDS011;44505;43.240;0.070;2022-12-18T05:23:46;14.20;;;8.00;;
58727;SDS011;44505;43.240;0.070;2022-12-18T05:26:14;12.00;;;6.85;;
58727;SDS011;44505;43.240;0.070;2022-12-18T05:28:39;24.95;;;9.27;;
58727;SDS011;44505;43.240;0.070;2022-12-18T05:31:05;22.60;;;9.07;;
58727;SDS011;44505;43.240;0.070;2022-12-18T05:33:31;19.40;;;9.23;;
58727;SDS011;44505;43.240;0.070;2022-12-18T05:35:58;9.02;;;5.30;;
58727;SDS011;44505;43.240;0.070;2022-12-18T05:38:24;33.20;;;11.38;;
58727;SDS011;44505;43.240;0.070;2022-12-18T05:40:50;22.30;;;8.88;;
58727;SDS011;44505;43.240;0.070;2022-12-18T05:43:16;11.88;;;7.03;;
58727;SDS011;44505;43.240;0.070;2022-12-18T05:45:41;16.52;;;6.55;;
58727;SDS011;44505;43.240;0.070;2022-12-18T05:48:07;12.63;;;7.47;;
58727;SDS011;44505;43.240;0.070;2022-12-18T05:50:36;30.48;;;12.57;;
58727;SDS011;44505;43.240;0.070;2022-12-18T05:53:02;11.27;;;6.53;;
58727;SDS011;44505;43.240;0.070;2022-12-18T05:55:28;8.40;;;5.53;;
58727;SDS011;44505;43.240;0.070;2022-12-18T05:57:53;9.23;;;5.05;;
58727;SDS011;44505;43.240;0.070;2022-12-18T06:00:18;8.38;;;5.15;;
58727;SDS011;44505;43.240;0.070;2022-12-18T06:02:47;10.15;;;6.05;;
58727;SDS011;44505;43.240;0.070;2022-12-18T06:05:12;8.48;;;5.72;;
58727;SDS011;44505;43.240;0.070;2022-12-18T06:07:38;7.90;;;5.50;;
58727;SDS011;44505;43.240;0.070;2022-12-18T06:10:03;9.45;;;5.72;;
58727;SDS011;44505;43.240;0.070;2022-12-18T06:12:29;7.25;;;5.57;;
58727;SDS011;44505;43.240;0.070;2022-12-18T06:14:54;8.55;;;5.10;;
58727;SDS011;44505;43.240;0.070;2022-12-18T06:17:20;7.97;;;5.03;;
58727;SDS011;44505;43.240;0.070;2022-12-18T06:19:45;8.18;;;4.70;;
58727;SDS011;44505;43.240;0.070;2022-12-18T06:22:10;7.35;;;4.20;;
58727;SDS011;44505;43.240;0.070;2022-12-18T06:24:36;7.70;;;4.82;;
58727;SDS011;44505;43.240;0.070;2022-12-18T06:27:01;7.97;;;5.05;;
58727;SDS011;44505;43.240;0.070;2022-12-18T06:29:27;6.15;;;4.10;;
58727;SDS011;44505;43.240;0.070;2022-12-18T06:31:52;9.38;;;5.57;;
58727;SDS011;44505;43.240;0.070;2022-12-18T06:34:18;10.98;;;5.60;;
58727;SDS011;44505;43.240;0.070;2022-12-18T06:36:44;8.65;;;4.85;;
58727;SDS011;44505;43.240;0.070;2022-12-18T06:39:09;9.68;;;5.15;;
58727;SDS011;44505;43.240;0.070;2022-12-18T06:41:34;7.13;;;5.10;;
58727;SDS011;44505;43.240;0.070;2022-12-18T06:44:00;6.40;;;4.78;;
58727;SDS011;44505;43.240;0.070;2022-12-18T06:46:26;7.88;;;5.15;;
58727;SDS011;44505;43.240;0.070;2022-12-18T06:48:51;8.77;;;5.50;;
58727;SDS011;44505;43.240;0.070;2022-12-18T06:51:21;7.57;;;5.07;;
58727;SDS011;44505;43.240;0.070;2022-12-18T06:53:46;9.18;;;5.20;;
58727;SDS011;44505;43.240;0.070;2022-12-18T06:56:13;6.03;;;5.10;;
58727;SDS011;44505;43.240;0.070;2022-12-18T06:58:38;7.85;;;5.20;;
58727;SDS011;44505;43.240;0.070;2022-12-18T07:01:05;10.20;;;6.30;;
58727;SDS011;44505;43.240;0.070;2022-12-18T07:03:31;8.18;;;5.30;;
58727;SDS011;44505;43.240;0.070;2022-12-18T07:05:57;14.50;;;7.05;;
58727;SDS011;44505;43.240;0.070;2022-12-18T07:08:22;10.82;;;5.90;;
58727;SDS011;44505;43.240;0.070;2022-12-18T07:10:48;8.38;;;5.22;;
58727;SDS011;44505;43.240;0.070;2022-12-18T07:13:16;12.57;;;6.65;;
58727;SDS011;44505;43.240;0.070;2022-12-18T07:15:42;12.30;;;6.75;;
58727;SDS011;44505;43.240;0.070;2022-12-18T07:18:07;7.95;;;5.95;;
58727;SDS011;44505;43.240;0.070;2022-12-18T07:20:33;7.38;;;5.05;;
58727;SDS011;44505;43.240;0.070;2022-12-18T07:22:58;11.88;;;7.22;;
58727;SDS011;44505;43.240;0.070;2022-12-18T07:25:24;18.08;;;8.48;;
58727;SDS011;44505;43.240;0.070;2022-12-18T07:27:49;21.58;;;12.75;;
58727;SDS011;44505;43.240;0.070;2022-12-18T07:30:14;26.90;;;14.18;;
58727;SDS011;44505;43.240;0.070;2022-12-18T07:32:40;26.20;;;13.73;;
58727;SDS011;44505;43.240;0.070;2022-12-18T07:35:05;42.83;;;24.30;;
58727;SDS011;44505;43.240;0.070;2022-12-18T07:37:31;36.80;;;19.20;;
58727;SDS011;44505;43.240;0.070;2022-12-18T07:39:56;34.92;;;20.25;;
58727;SDS011;44505;43.240;0.070;2022-12-18T07:42:22;20.65;;;13.75;;
58727;SDS011;44505;43.240;0.070;2022-12-18T07:44:56;52.28;;;25.35;;
58727;SDS011;44505;43.240;0.070;2022-12-18T07:47:22;32.50;;;15.82;;
58727;SDS011;44505;43.240;0.070;2022-12-18T07:49:47;30.35;;;16.20;;
58727;SDS011;44505;43.240;0.070;2022-12-18T07:52:13;32.97;;;18.05;;
58727;SDS011;44505;43.240;0.070;2022-12-18T07:54:38;32.70;;;19.40;;
58727;SDS011;44505;43.240;0.070;2022-12-18T07:57:04;33.42;;;16.98;;
58727;SDS011;44505;43.240;0.070;2022-12-18T07:59:29;21.02;;;13.52;;
58727;SDS011;44505;43.240;0.070;2022-12-18T08:01:55;21.23;;;11.80;;
58727;SDS011;44505;43.240;0.070;2022-12-18T08:04:20;13.57;;;8.48;;
58727;SDS011;44505;43.240;0.070;2022-12-18T08:06:45;10.57;;;7.07;;
58727;SDS011;44505;43.240;0.070;2022-12-18T08:09:11;27.63;;;22.08;;
58727;SDS011;44505;43.240;0.070;2022-12-18T08:11:36;54.45;;;37.08;;
58727;SDS011;44505;43.240;0.070;2022-12-18T08:14:02;18.45;;;14.02;;
58727;SDS011;44505;43.240;0.070;2022-12-18T08:16:27;27.60;;;18.52;;
58727;SDS011;44505;43.240;0.070;2022-12-18T08:18:53;23.23;;;16.23;;
58727;SDS011;44505;43.240;0.070;2022-12-18T08:21:22;18.63;;;14.18;;
58727;SDS011;44505;43.240;0.070;2022-12-18T08:23:49;22.90;;;11.82;;
58727;SDS011;44505;43.240;0.070;2022-12-18T08:26:15;17.73;;;10.10;;
58727;SDS011;44505;43.240;0.070;2022-12-18T08:28:41;12.65;;;10.55;;
58727;SDS011;44505;43.240;0.070;2022-12-18T08:31:06;17.05;;;10.32;;
58727;SDS011;44505;43.240;0.070;2022-12-18T08:33:32;18.05;;;10.18;;
58727;SDS011;44505;43.240;0.070;2022-12-18T08:35:58;16.33;;;9.80;;
58727;SDS011;44505;43.240;0.070;2022-12-18T08:38:24;16.50;;;11.35;;
58727;SDS011;44505;43.240;0.070;2022-12-18T08:40:53;25.17;;;14.68;;
58727;SDS011;44505;43.240;0.070;2022-12-18T08:43:19;26.48;;;14.82;;
58727;SDS011;44505;43.240;0.070;2022-12-18T08:46:03;58.17;;;29.85;;
58727;SDS011;44505;43.240;0.070;2022-12-18T08:48:28;79.57;;;31.35;;
58727;SDS011;44505;43.240;0.070;2022-12-18T08:50:55;73.82;;;32.83;;
58727;SDS011;44505;43.240;0.070;2022-12-18T08:53:20;49.67;;;29.45;;
58727;SDS011;44505;43.240;0.070;2022-12-18T08:55:46;21.63;;;12.98;;
58727;SDS011;44505;43.240;0.070;2022-12-18T08:58:11;15.27;;;10.25;;
58727;SDS011;44505;43.240;0.070;2022-12-18T09:00:37;18.80;;;12.30;;
58727;SDS011;44505;43.240;0.070;2022-12-18T09:03:02;9.57;;;6.82;;
58727;SDS011;44505;43.240;0.070;2022-12-18T09:05:27;14.95;;;8.57;;
58727;SDS011;44505;43.240;0.070;2022-12-18T09:07:53;13.23;;;9.23;;
58727;SDS011;44505;43.240;0.070;2022-12-18T09:10:18;12.45;;;8.00;;
58727;SDS011;44505;43.240;0.070;2022-12-18T09:12:43;10.32;;;7.03;;
58727;SDS011;44505;43.240;0.070;2022-12-18T09:15:09;9.60;;;6.40;;
58727;SDS011;44505;43.240;0.070;2022-12-18T09:17:34;14.27;;;9.20;;
58727;SDS011;44505;43.240;0.070;2022-12-18T09:20:00;17.92;;;9.82;;
58727;SDS011;44505;43.240;0.070;2022-12-18T09:22:25;17.48;;;11.73;;
58727;SDS011;44505;43.240;0.070;2022-12-18T09:24:51;10.65;;;8.15;;
58727;SDS011;44505;43.240;0.070;2022-12-18T09:27:16;15.88;;;8.60;;
58727;SDS011;44505;43.240;0.070;2022-12-18T09:29:41;33.47;;;15.63;;
58727;SDS011;44505;43.240;0.070;2022-12-18T09:32:07;19.88;;;13.07;;
58727;SDS011;44505;43.240;0.070;2022-12-18T09:34:32;23.30;;;11.63;;
58727;SDS011;44505;43.240;0.070;2022-12-18T09:36:57;18.70;;;12.05;;
58727;SDS011;44505;43.240;0.070;2022-12-18T09:39:23;15.10;;;9.27;;
58727;SDS011;44505;43.240;0.070;2022-12-18T09:46:44;14.15;;;8.88;;
58727;SDS011;44505;43.240;0.070;2022-12-18T09:49:12;8.75;;;7.40;;
58727;SDS011;44505;43.240;0.070;2022-12-18T09:54:05;9.80;;;5.93;;
58727;SDS011;44505;43.240;0.070;2022-12-18T09:56:35;13.25;;;8.13;;
58727;SDS011;44505;43.240;0.070;2022-12-18T09:59:01;9.48;;;6.85;;
58727;SDS011;44505;43.240;0.070;2022-12-18T10:01:27;11.05;;;7.20;;
58727;SDS011;44505;43.240;0.070;2022-12-18T10:03:53;36.25;;;20.35;;
58727;SDS011;44505;43.240;0.070;2022-12-18T10:11:16;14.25;;;8.55;;
58727;SDS011;44505;43.240;0.070;2022-12-18T10:13:52;14.73;;;8.20;;
58727;SDS011;44505;43.240;0.070;2022-12-18T10:16:31;20.60;;;11.50;;
58727;SDS011;44505;43.240;0.070;2022-12-18T10:22:34;21.98;;;12.52;;
58727;SDS011;44505;43.240;0.070;2022-12-18T10:24:36;7.20;;;4.60;;
58727;SDS011;44505;43.240;0.070;2022-12-18T10:27:15;15.75;;;10.32;;
58727;SDS011;44505;43.240;0.070;2022-12-18T10:29:44;8.77;;;7.07;;
58727;SDS011;44505;43.240;0.070;2022-12-18T10:32:18;11.85;;;7.00;;
58727;SDS011;44505;43.240;0.070;2022-12-18T10:34:46;9.98;;;6.38;;
58727;SDS011;44505;43.240;0.070;2022-12-18T10:37:15;6.50;;;5.10;;
58727;SDS011;44505;43.240;0.070;2022-12-18T10:39:41;7.60;;;4.43;;
58727;SDS011;44505;43.240;0.070;2022-12-18T10:42:11;6.97;;;4.93;;
58727;SDS011;44505;43.240;0.070;2022-12-18T10:44:40;5.47;;;4.30;;
58727;SDS011;44505;43.240;0.070;2022-12-18T10:47:09;5.00;;;3.90;;
58727;SDS011;44505;43.240;0.070;2022-12-18T10:49:47;3.30;;;2.97;;
58727;SDS011;44505;43.240;0.070;2022-12-18T10:52:20;3.83;;;3.50;;
58727;SDS011;44505;43.240;0.070;2022-12-18T10:54:49;5.18;;;3.65;;
58727;SDS011;44505;43.240;0.070;2022-12-18T10:57:15;9.38;;;6.47;;
58727;SDS011;44505;43.240;0.070;2022-12-18T10:59:54;5.65;;;5.05;;
58727;SDS011;44505;43.240;0.070;2022-12-18T11:02:27;4.95;;;4.03;;
58727;SDS011;44505;43.240;0.070;2022-12-18T11:04:53;4.75;;;3.72;;
58727;SDS011;44505;43.240;0.070;2022-12-18T11:07:19;7.47;;;5.10;;
58727;SDS011;44505;43.240;0.070;2022-12-18T11:09:45;5.80;;;4.97;;
58727;SDS011;44505;43.240;0.070;2022-12-18T11:12:28;4.10;;;3.70;;
58727;SDS011;44505;43.240;0.070;2022-12-18T11:14:54;4.20;;;3.40;;
58727;SDS011;44505;43.240;0.070;2022-12-18T11:19:52;6.82;;;3.60;;
58727;SDS011;44505;43.240;0.070;2022-12-18T11:22:21;4.20;;;3.25;;
58727;SDS011;44505;43.240;0.070;2022-12-18T11:24:58;4.85;;;3.40;;
58727;SDS011;44505;43.240;0.070;2022-12-18T11:27:25;4.32;;;3.88;;
58727;SDS011;44505;43.240;0.070;2022-12-18T11:29:51;3.40;;;2.28;;
58727;SDS011;44505;43.240;0.070;2022-12-18T11:32:34;3.40;;;3.10;;
58727;SDS011;44505;43.240;0.070;2022-12-18T11:35:20;3.20;;;2.70;;
58727;SDS011;44505;43.240;0.070;2022-12-18T11:37:57;2.08;;;1.88;;
58727;SDS011;44505;43.240;0.070;2022-12-18T11:40:30;3.38;;;2.58;;
58727;SDS011;44505;43.240;0.070;2022-12-18T11:43:00;3.80;;;3.40;;
58727;SDS011;44505;43.240;0.070;2022-12-18T11:45:34;4.78;;;3.20;;
58727;SDS011;44505;43.240;0.070;2022-12-18T11:48:03;2.20;;;2.00;;
58727;SDS011;44505;43.240;0.070;2022-12-18T11:50:38;2.22;;;2.03;;
58727;SDS011;44505;43.240;0.070;2022-12-18T11:53:11;4.43;;;4.03;;
58727;SDS011;44505;43.240;0.070;2022-12-18T11:55:40;2.70;;;2.50;;
58727;SDS011;44505;43.240;0.070;2022-12-18T11:58:27;2.42;;;2.22;;
58727;SDS011;44505;43.240;0.070;2022-12-18T12:03:51;3.60;;;3.30;;
58727;SDS011;44505;43.240;0.070;2022-12-18T12:06:36;3.42;;;3.13;;
58727;SDS011;44505;43.240;0.070;2022-12-18T12:09:19;6.07;;;5.00;;
58727;SDS011;44505;43.240;0.070;2022-12-18T12:11:50;4.15;;;3.35;;
58727;SDS011;44505;43.240;0.070;2022-12-18T12:15:11;2.50;;;2.30;;
58727;SDS011;44505;43.240;0.070;2022-12-18T12:17:19;3.47;;;3.17;;
58727;SDS011;44505;43.240;0.070;2022-12-18T12:22:37;4.40;;;3.38;;
58727;SDS011;44505;43.240;0.070;2022-12-18T12:35:29;3.13;;;2.92;;
58727;SDS011;44505;43.240;0.070;2022-12-18T12:38:03;3.40;;;2.70;;
58727;SDS011;44505;43.240;0.070;2022-12-18T12:40:30;2.63;;;2.15;;
58727;SDS011;44505;43.240;0.070;2022-12-18T12:42:58;2.03;;;1.90;;
58727;SDS011;44505;43.240;0.070;2022-12-18T12:45:52;1.48;;;1.30;;
58727;SDS011;44505;43.240;0.070;2022-12-18T12:51:08;1.17;;;1.13;;
58727;SDS011;44505;43.240;0.070;2022-12-18T12:53:36;1.77;;;1.67;;
58727;SDS011;44505;43.240;0.070;2022-12-18T12:56:02;1.10;;;1.10;;
58727;SDS011;44505;43.240;0.070;2022-12-18T13:01:40;1.10;;;1.00;;
58727;SDS011;44505;43.240;0.070;2022-12-18T13:03:54;1.48;;;0.93;;
58727;SDS011;44505;43.240;0.070;2022-12-18T13:09:05;1.85;;;1.00;;
58727;SDS011;44505;43.240;0.070;2022-12-18T13:14:42;1.30;;;1.20;;
58727;SDS011;44505;43.240;0.070;2022-12-18T13:19:47;1.52;;;1.25;;
58727;SDS011;44505;43.240;0.070;2022-12-18T13:22:20;3.28;;;1.70;;
58727;SDS011;44505;43.240;0.070;2022-12-18T13:24:47;1.50;;;1.40;;
58727;SDS011;44505;43.240;0.070;2022-12-18T13:29:56;1.10;;;1.10;;
58727;SDS011;44505;43.240;0.070;2022-12-18T13:32:22;0.90;;;0.90;;
58727;SDS011;44505;43.240;0.070;2022-12-18T13:34:48;1.02;;;0.98;;
58727;SDS011;44505;43.240;0.070;2022-12-18T13:39:58;1.27;;;1.17;;
58727;SDS011;44505;43.240;0.070;2022-12-18T13:47:52;0.77;;;0.77;;
58727;SDS011;44505;43.240;0.070;2022-12-18T13:50:22;0.90;;;0.60;;
58727;SDS011;44505;43.240;0.070;2022-12-18T13:52:48;0.73;;;0.73;;
58727;SDS011;44505;43.240;0.070;2022-12-18T13:55:17;0.75;;;0.63;;
58727;SDS011;44505;43.240;0.070;2022-12-18T13:57:43;0.98;;;0.68;;
58727;SDS011;44505;43.240;0.070;2022-12-18T14:02:46;1.20;;;1.10;;
58727;SDS011;44505;43.240;0.070;2022-12-18T14:05:25;1.35;;;1.00;;
58727;SDS011;44505;43.240;0.070;2022-12-18T14:07:51;1.63;;;1.30;;
58727;SDS011;44505;43.240;0.070;2022-12-18T14:10:17;4.70;;;3.03;;
58727;SDS011;44505;43.240;0.070;2022-12-18T14:12:47;5.90;;;4.50;;
58727;SDS011;44505;43.240;0.070;2022-12-18T14:17:50;3.17;;;2.95;;
58727;SDS011;44505;43.240;0.070;2022-12-18T14:20:16;4.07;;;3.35;;
58727;SDS011;44505;43.240;0.070;2022-12-18T14:22:42;4.75;;;3.20;;
58727;SDS011;44505;43.240;0.070;2022-12-18T14:27:37;3.50;;;2.72;;
58727;SDS011;44505;43.240;0.070;2022-12-18T14:30:18;5.63;;;3.28;;
58727;SDS011;44505;43.240;0.070;2022-12-18T14:33:10;3.65;;;2.72;;
58727;SDS011;44505;43.240;0.070;2022-12-18T14:35:34;6.35;;;4.00;;
58727;SDS011;44505;43.240;0.070;2022-12-18T14:40:43;21.73;;;14.27;;
58727;SDS011;44505;43.240;0.070;2022-12-18T14:43:12;20.92;;;12.73;;
58727;SDS011;44505;43.240;0.070;2022-12-18T14:45:38;16.33;;;11.00;;
58727;SDS011;44505;43.240;0.070;2022-12-18T14:48:06;25.92;;;15.10;;
58727;SDS011;44505;43.240;0.070;2022-12-18T14:50:32;152.05;;;78.97;;
58727;SDS011;44505;43.240;0.070;2022-12-18T14:52:57;129.07;;;66.18;;
58727;SDS011;44505;43.240;0.070;2022-12-18T14:55:23;83.07;;;44.83;;
58727;SDS011;44505;43.240;0.070;2022-12-18T14:57:52;32.65;;;22.27;;
58727;SDS011;44505;43.240;0.070;2022-12-18T15:00:19;24.60;;;16.60;;
58727;SDS011;44505;43.240;0.070;2022-12-18T15:02:46;101.40;;;54.10;;
58727;SDS011;44505;43.240;0.070;2022-12-18T15:07:39;154.43;;;85.38;;
58727;SDS011;44505;43.240;0.070;2022-12-18T15:10:13;45.47;;;30.25;;
58727;SDS011;44505;43.240;0.070;2022-12-18T15:12:46;53.03;;;31.35;;
58727;SDS011;44505;43.240;0.070;2022-12-18T15:15:41;48.50;;;31.25;;
58727;SDS011;44505;43.240;0.070;2022-12-18T15:20:41;51.90;;;31.33;;
58727;SDS011;44505;43.240;0.070;2022-12-18T15:23:20;19.00;;;14.07;;
58727;SDS011;44505;43.240;0.070;2022-12-18T15:25:47;15.63;;;11.63;;
58727;SDS011;44505;43.240;0.070;2022-12-18T15:28:21;19.83;;;15.35;;
58727;SDS011;44505;43.240;0.070;2022-12-18T15:30:58;16.88;;;11.35;;
58727;SDS011;44505;43.240;0.070;2022-12-18T15:33:25;16.98;;;12.15;;
58727;SDS011;44505;43.240;0.070;2022-12-18T15:36:01;10.52;;;8.07;;
58727;SDS011;44505;43.240;0.070;2022-12-18T15:38:26;8.95;;;6.88;;
58727;SDS011;44505;43.240;0.070;2022-12-18T15:40:52;10.35;;;9.07;;
58727;SDS011;44505;43.240;0.070;2022-12-18T15:43:19;27.73;;;17.38;;
58727;SDS011;44505;43.240;0.070;2022-12-18T15:46:08;17.45;;;13.48;;
58727;SDS011;44505;43.240;0.070;2022-12-18T15:48:35;18.58;;;12.75;;
58727;SDS011;44505;43.240;0.070;2022-12-18T15:51:04;10.90;;;5.68;;
58727;SDS011;44505;43.240;0.070;2022-12-18T15:53:31;7.18;;;4.50;;
58727;SDS011;44505;43.240;0.070;2022-12-18T15:55:57;10.75;;;9.02;;
58727;SDS011;44505;43.240;0.070;2022-12-18T15:58:41;11.23;;;7.93;;
58727;SDS011;44505;43.240;0.070;2022-12-18T16:01:07;5.15;;;4.05;;
58727;SDS011;44505;43.240;0.070;2022-12-18T16:03:33;5.40;;;4.82;;
58727;SDS011;44505;43.240;0.070;2022-12-18T16:05:59;9.90;;;8.43;;
58727;SDS011;44505;43.240;0.070;2022-12-18T16:10:52;6.22;;;5.38;;
58727;SDS011;44505;43.240;0.070;2022-12-18T16:13:17;17.00;;;11.45;;
58727;SDS011;44505;43.240;0.070;2022-12-18T16:15:44;14.38;;;10.40;;
58727;SDS011;44505;43.240;0.070;2022-12-18T16:18:09;12.88;;;8.32;;
58727;SDS011;44505;43.240;0.070;2022-12-18T16:20:35;15.80;;;9.23;;